Time;durP1;ratioP1;P1;durP2;ratioP2;P2;SDS_P1;SDS_P2;PMS_P1;PMS_P2;Temp;Humidity;BMP_temperature;BMP_pressure;BME280_temperature;BME280_humidity;BME280_pressure;Samples;Min_cycle;Max_cycle;Signal;HPM_P1;HPM_P2
2022/08/03 00:01:01;;;;;;;3.63;1.20;;;23.30;58.60;;;;;;5054642;28;20521;-55
2022/08/03 00:03:27;;;;;;;1.48;1.10;;;23.30;58.60;;;;;;5055305;28;20182;-52
2022/08/03 00:05:52;;;;;;;1.05;0.93;;;23.30;58.70;;;;;;5055483;28;20637;-57
2022/08/03 00:08:18;;;;;;;2.88;1.63;;;23.30;58.70;;;;;;5054627;28;20783;-57
2022/08/03 00:10:43;;;;;;;1.95;1.17;;;23.30;58.70;;;;;;5055267;28;20176;-57
2022/08/03 00:13:11;;;;;;;2.70;1.50;;;23.30;58.70;;;;;;5055408;28;20209;-59
2022/08/03 00:15:40;;;;;;;1.23;1.10;;;23.30;58.70;;;;;;5054589;28;20182;-59
2022/08/03 00:18:06;;;;;;;1.05;0.90;;;23.30;58.70;;;;;;5054879;28;20638;-58
2022/08/03 00:20:32;;;;;;;1.90;1.30;;;23.30;58.80;;;;;;5054846;28;20671;-58
2022/08/03 00:22:57;;;;;;;1.55;1.13;;;23.30;58.70;;;;;;5054852;28;20179;-54
2022/08/03 00:25:23;;;;;;;1.63;1.25;;;23.30;58.80;;;;;;5055229;28;20502;-55
2022/08/03 00:27:48;;;;;;;1.80;1.20;;;23.30;58.70;;;;;;5054227;28;20703;-56
2022/08/03 00:30:14;;;;;;;2.25;1.17;;;23.30;58.80;;;;;;5055000;28;20177;-53
2022/08/03 00:32:39;;;;;;;2.17;1.02;;;23.30;58.80;;;;;;5054676;28;20713;-56
2022/08/03 00:35:05;;;;;;;1.55;1.00;;;23.20;58.80;;;;;;5054104;28;20186;-57
2022/08/03 00:37:31;;;;;;;1.20;1.10;;;23.30;58.80;;;;;;5054575;28;20219;-57
2022/08/03 00:39:56;;;;;;;2.45;1.13;;;23.20;58.80;;;;;;5054674;28;20258;-58
2022/08/03 00:42:22;;;;;;;2.08;1.08;;;23.20;58.80;;;;;;5053910;28;20621;-56
2022/08/03 00:44:47;;;;;;;2.03;1.20;;;23.20;58.80;;;;;;5054614;28;20183;-56
2022/08/03 00:47:13;;;;;;;1.63;1.10;;;23.20;58.80;;;;;;5054500;28;20175;-57
2022/08/03 00:49:39;;;;;;;2.03;1.23;;;23.20;58.80;;;;;;5054120;28;20206;-54
2022/08/03 00:52:05;;;;;;;1.77;1.05;;;23.30;58.90;;;;;;5054584;28;20175;-58
2022/08/03 00:54:30;;;;;;;2.47;1.35;;;23.20;58.90;;;;;;5054546;28;20174;-52
2022/08/03 00:56:56;;;;;;;1.42;1.27;;;23.20;58.90;;;;;;5035869;28;20198;-58
2022/08/03 00:59:21;;;;;;;2.15;1.10;;;23.20;58.90;;;;;;5054340;28;20292;-56
2022/08/03 01:01:47;;;;;;;1.67;1.10;;;23.20;58.90;;;;;;5054085;28;20168;-57
2022/08/03 01:04:13;;;;;;;1.95;0.82;;;23.20;59.00;;;;;;5053798;28;20179;-54
2022/08/03 01:06:49;;;;;;;2.47;1.48;;;23.20;59.00;;;;;;5054292;28;20171;-57
2022/08/03 01:09:40;;;;;;;1.08;0.75;;;23.20;59.00;;;;;;5037041;28;20258;-57
2022/08/03 01:12:33;;;;;;;1.95;1.30;;;23.20;59.00;;;;;;5036258;28;20183;-58
2022/08/03 01:15:27;;;;;;;2.25;1.15;;;23.20;58.90;;;;;;5035955;28;20188;-58
2022/08/03 01:18:02;;;;;;;1.92;1.20;;;23.20;59.00;;;;;;5035282;28;20214;-58
2022/08/03 01:20:31;;;;;;;1.13;1.00;;;23.20;58.90;;;;;;5036883;28;20228;-58
2022/08/03 01:23:00;;;;;;;1.35;0.95;;;23.20;59.00;;;;;;5036175;28;20528;-55
2022/08/03 01:25:39;;;;;;;2.25;1.00;;;23.20;59.00;;;;;;5053281;28;20171;-53
2022/08/03 01:28:19;;;;;;;1.45;1.15;;;23.20;59.00;;;;;;5053695;28;20167;-57
2022/08/03 01:30:44;;;;;;;1.40;0.95;;;23.20;59.00;;;;;;5035791;28;20183;-54
2022/08/03 01:33:16;;;;;;;1.77;1.35;;;23.20;59.00;;;;;;5018805;28;20547;-54
2022/08/03 01:36:02;;;;;;;1.55;1.02;;;23.20;59.00;;;;;;5019915;28;20179;-57
2022/08/03 01:38:32;;;;;;;2.40;1.58;;;23.20;59.00;;;;;;5035878;28;20250;-58
2022/08/03 01:41:03;;;;;;;1.50;1.10;;;23.20;59.00;;;;;;5019820;28;20179;-58
2022/08/03 01:43:28;;;;;;;2.10;1.00;;;23.20;59.00;;;;;;5035938;28;20589;-57
2022/08/03 01:45:56;;;;;;;1.67;1.00;;;23.20;59.10;;;;;;5018578;28;20202;-55
2022/08/03 01:48:21;;;;;;;1.13;1.02;;;23.20;59.00;;;;;;5019668;28;20182;-55
2022/08/03 01:50:47;;;;;;;1.90;1.00;;;23.20;59.00;;;;;;5035682;28;20629;-53
2022/08/03 01:53:14;;;;;;;2.28;1.40;;;23.20;59.00;;;;;;5018487;28;20202;-56
2022/08/03 01:55:39;;;;;;;1.15;1.00;;;23.20;59.00;;;;;;5035887;28;20179;-55
2022/08/03 01:58:06;;;;;;;1.17;1.00;;;23.20;59.00;;;;;;5018841;28;20619;-52
2022/08/03 02:00:33;;;;;;;1.75;1.25;;;23.20;59.00;;;;;;5035108;28;20198;-55
2022/08/03 02:02:59;;;;;;;2.08;1.10;;;23.20;59.00;;;;;;5035390;28;20178;-56
2022/08/03 02:05:25;;;;;;;1.40;1.20;;;23.20;59.00;;;;;;5035460;28;20171;-56
2022/08/03 02:07:50;;;;;;;1.40;1.00;;;23.20;59.00;;;;;;5052278;28;20168;-56
2022/08/03 02:10:18;;;;;;;2.58;1.40;;;23.20;59.00;;;;;;5035336;28;20181;-57
2022/08/03 02:12:44;;;;;;;1.55;1.23;;;23.10;58.90;;;;;;5053150;28;20537;-55
2022/08/03 02:15:10;;;;;;;1.60;1.10;;;23.20;59.00;;;;;;5034840;28;20641;-58
2022/08/03 02:17:36;;;;;;;2.25;1.00;;;23.20;58.90;;;;;;5018884;28;20239;-58
2022/08/03 02:20:02;;;;;;;1.77;1.15;;;23.10;58.90;;;;;;5018684;28;20256;-58
2022/08/03 02:22:28;;;;;;;0.85;0.85;;;23.10;58.90;;;;;;5052201;28;20209;-58
2022/08/03 02:24:53;;;;;;;2.10;1.13;;;23.10;58.90;;;;;;5034936;28;20178;-56
2022/08/03 02:27:23;;;;;;;1.65;1.30;;;23.10;58.80;;;;;;5052272;28;20178;-54
2022/08/03 02:29:52;;;;;;;1.42;1.30;;;23.10;58.90;;;;;;5052777;28;20186;-54
2022/08/03 02:32:20;;;;;;;1.63;1.13;;;23.10;58.90;;;;;;5035095;28;20736;-55
2022/08/03 02:34:48;;;;;;;1.67;1.10;;;23.10;58.90;;;;;;5017971;28;20183;-57
2022/08/03 02:37:13;;;;;;;1.75;0.93;;;23.10;58.90;;;;;;5018687;28;20242;-57
2022/08/03 02:39:39;;;;;;;2.30;1.10;;;23.10;58.90;;;;;;5018473;28;20203;-57
2022/08/03 02:42:04;;;;;;;2.10;1.05;;;23.10;58.90;;;;;;5017817;28;20210;-58
2022/08/03 02:44:33;;;;;;;1.95;1.10;;;23.10;58.90;;;;;;5034956;28;20171;-57
2022/08/03 02:47:04;;;;;;;2.90;1.30;;;23.10;58.90;;;;;;5052489;28;20167;-57
2022/08/03 02:49:30;;;;;;;1.63;1.17;;;23.10;58.80;;;;;;5034130;28;20171;-57
2022/08/03 02:51:55;;;;;;;1.65;1.10;;;23.10;58.90;;;;;;5034731;28;20229;-57
2022/08/03 02:54:22;;;;;;;2.35;1.15;;;23.10;58.90;;;;;;5034688;28;20653;-57
2022/08/03 02:56:47;;;;;;;3.00;1.20;;;23.10;58.90;;;;;;5034182;28;20262;-55
2022/08/03 02:59:13;;;;;;;2.53;1.20;;;23.10;58.90;;;;;;5034699;28;20289;-53
2022/08/03 03:01:38;;;;;;;3.05;1.15;;;23.10;58.90;;;;;;5034837;28;20524;-55
2022/08/03 03:04:04;;;;;;;3.45;1.17;;;23.10;58.90;;;;;;5033866;28;20174;-56
2022/08/03 03:06:29;;;;;;;2.22;1.10;;;23.10;58.90;;;;;;5052342;28;20167;-55
2022/08/03 03:08:55;;;;;;;1.17;1.02;;;23.10;58.90;;;;;;5034383;28;20217;-58
2022/08/03 03:11:20;;;;;;;1.20;1.10;;;23.10;58.90;;;;;;5034112;28;20298;-56
2022/08/03 03:13:47;;;;;;;0.90;0.90;;;23.10;58.90;;;;;;5052296;28;20551;-57
2022/08/03 03:16:13;;;;;;;1.67;1.10;;;23.10;58.90;;;;;;5018299;28;20181;-58
2022/08/03 03:18:38;;;;;;;1.80;1.13;;;23.10;58.90;;;;;;5051683;28;20211;-57
2022/08/03 03:21:04;;;;;;;2.50;1.00;;;23.10;58.90;;;;;;5052087;28;20175;-58
2022/08/03 03:23:29;;;;;;;1.10;1.00;;;23.10;58.90;;;;;;5033626;28;20167;-55
2022/08/03 03:25:57;;;;;;;3.20;1.20;;;23.00;58.80;;;;;;5034329;28;20664;-55
2022/08/03 03:28:23;;;;;;;1.08;0.90;;;23.00;58.80;;;;;;5034749;28;20183;-51
2022/08/03 03:30:48;;;;;;;1.45;1.00;;;23.10;58.90;;;;;;5034509;28;20198;-57
2022/08/03 03:33:14;;;;;;;2.03;1.35;;;23.00;58.90;;;;;;5038435;28;20202;-56
2022/08/03 03:35:41;;;;;;;1.52;1.10;;;23.00;58.90;;;;;;5021750;28;20254;-56
2022/08/03 03:38:06;;;;;;;2.05;1.23;;;23.00;58.90;;;;;;5037245;28;20215;-58
2022/08/03 03:40:33;;;;;;;4.22;1.05;;;23.00;58.90;;;;;;5056022;28;21025;-56
2022/08/03 03:42:59;;;;;;;2.22;1.20;;;23.10;58.90;;;;;;5055857;28;20199;-58
2022/08/03 03:45:24;;;;;;;1.92;1.10;;;23.00;58.90;;;;;;5055166;28;20198;-57
2022/08/03 03:47:50;;;;;;;1.83;1.20;;;23.00;58.90;;;;;;5021429;28;20598;-57
2022/08/03 03:50:16;;;;;;;2.10;1.10;;;23.00;58.90;;;;;;5037848;28;20669;-57
2022/08/03 03:52:42;;;;;;;1.95;1.17;;;23.00;58.90;;;;;;5055068;28;20187;-56
2022/08/03 03:55:07;;;;;;;1.00;1.00;;;23.00;58.90;;;;;;5055890;28;20634;-57
2022/08/03 03:57:33;;;;;;;1.55;1.20;;;23.00;58.90;;;;;;5055362;28;20265;-56
2022/08/03 03:59:58;;;;;;;1.65;1.25;;;23.00;58.90;;;;;;5054561;28;20167;-58
2022/08/03 04:02:24;;;;;;;1.52;1.42;;;23.00;58.90;;;;;;5055373;28;20285;-57
2022/08/03 04:11:00;;;;;;;2.10;1.27;;;23.00;58.90;;;;;;5040417;28;20198;-57
2022/08/03 04:13:34;;;;;;;3.30;1.20;;;23.00;58.90;;;;;;5038820;28;20187;-56
2022/08/03 04:16:00;;;;;;;2.45;1.27;;;23.00;58.90;;;;;;5021367;28;20552;-58
2022/08/03 04:18:26;;;;;;;2.17;1.30;;;23.00;58.90;;;;;;5020813;28;20211;-59
2022/08/03 04:20:52;;;;;;;3.03;1.27;;;23.00;58.90;;;;;;5020134;28;20179;-58
2022/08/03 04:23:19;;;;;;;1.55;1.10;;;23.00;58.90;;;;;;5037431;28;20254;-55
2022/08/03 04:25:45;;;;;;;4.60;1.40;;;23.00;58.90;;;;;;5054978;28;20626;-56
2022/08/03 04:28:10;;;;;;;1.30;1.10;;;23.00;58.90;;;;;;5020442;28;20189;-52
2022/08/03 04:30:36;;;;;;;1.55;1.20;;;23.00;58.90;;;;;;5037393;28;20167;-54
2022/08/03 04:33:02;;;;;;;1.55;1.20;;;23.00;58.90;;;;;;5020375;28;20230;-57
2022/08/03 04:35:30;;;;;;;2.30;1.30;;;23.00;58.80;;;;;;5036390;28;20262;-56
2022/08/03 04:37:55;;;;;;;1.88;1.25;;;23.00;58.80;;;;;;5054595;28;20573;-58
2022/08/03 04:40:30;;;;;;;1.83;1.25;;;23.00;58.80;;;;;;5037062;28;20630;-56
2022/08/03 04:42:55;;;;;;;1.50;1.10;;;23.00;58.80;;;;;;5035118;28;20182;-58
2022/08/03 04:45:21;;;;;;;1.70;1.00;;;23.00;58.80;;;;;;5020580;28;20171;-57
2022/08/03 04:47:46;;;;;;;2.80;1.50;;;23.00;59.40;;;;;;5054433;28;20198;-58
2022/08/03 04:50:12;;;;;;;2.83;1.30;;;23.00;58.80;;;;;;5019785;28;20213;-57
2022/08/03 04:52:38;;;;;;;1.20;1.10;;;23.00;58.80;;;;;;5036971;28;20645;-56
2022/08/03 04:55:03;;;;;;;3.35;1.45;;;23.00;58.80;;;;;;5019422;28;20179;-57
2022/08/03 04:57:29;;;;;;;1.80;1.15;;;23.00;58.70;;;;;;5054497;28;20219;-55
2022/08/03 04:59:55;;;;;;;1.20;1.10;;;23.00;58.80;;;;;;5054159;28;20179;-56
2022/08/03 05:02:21;;;;;;;1.80;0.95;;;23.00;58.80;;;;;;5053693;28;20646;-55
2022/08/03 05:04:46;;;;;;;2.50;1.13;;;23.00;58.80;;;;;;5054082;28;20171;-57
2022/08/03 05:07:12;;;;;;;1.17;1.00;;;23.00;58.80;;;;;;5054236;28;20270;-56
2022/08/03 05:09:38;;;;;;;2.42;1.40;;;23.00;58.80;;;;;;5053490;28;20217;-58
2022/08/03 05:12:04;;;;;;;3.17;1.50;;;23.00;58.80;;;;;;5053957;28;20265;-58
2022/08/03 05:14:30;;;;;;;1.50;1.08;;;23.00;58.80;;;;;;5036364;28;20660;-57
2022/08/03 05:16:55;;;;;;;2.97;1.30;;;23.00;58.80;;;;;;5053316;28;20174;-57
2022/08/03 05:19:21;;;;;;;2.55;1.10;;;23.00;58.90;;;;;;5053971;28;20223;-58
2022/08/03 05:21:46;;;;;;;2.72;1.20;;;23.00;58.90;;;;;;5053871;28;20167;-57
2022/08/03 05:24:12;;;;;;;4.32;1.20;;;23.00;58.90;;;;;;5053141;28;20171;-57
2022/08/03 05:26:37;;;;;;;1.80;1.08;;;23.00;58.90;;;;;;5053744;28;20171;-56
2022/08/03 05:29:03;;;;;;;2.33;1.35;;;23.00;58.90;;;;;;5053594;28;20646;-57
2022/08/03 05:31:29;;;;;;;1.92;1.08;;;23.00;58.90;;;;;;5052809;28;20245;-57
2022/08/03 05:33:55;;;;;;;1.05;0.95;;;23.00;58.90;;;;;;5053727;28;20183;-58
2022/08/03 05:36:21;;;;;;;2.60;1.10;;;23.00;58.90;;;;;;5035916;28;20645;-57
2022/08/03 05:38:46;;;;;;;3.55;1.38;;;23.10;58.90;;;;;;5052724;28;20235;-58
2022/08/03 05:41:12;;;;;;;2.13;1.05;;;23.00;58.90;;;;;;5053613;28;20166;-58
2022/08/03 05:43:37;;;;;;;1.92;1.27;;;23.10;58.90;;;;;;5053791;28;20568;-58
2022/08/03 05:46:03;;;;;;;1.23;1.08;;;23.00;59.50;;;;;;5052732;28;20172;-58
2022/08/03 05:48:29;;;;;;;2.15;1.10;;;23.10;58.90;;;;;;5053360;28;20540;-57
2022/08/03 05:50:54;;;;;;;1.73;1.15;;;23.10;58.90;;;;;;5053309;28;20221;-57
2022/08/03 05:53:20;;;;;;;2.17;1.20;;;23.10;58.90;;;;;;5052181;28;20179;-56
2022/08/03 05:55:45;;;;;;;1.45;1.30;;;23.10;58.90;;;;;;5053382;28;20290;-55
2022/08/03 05:58:11;;;;;;;1.90;1.00;;;23.10;58.90;;;;;;5052462;28;20640;-56
2022/08/03 06:00:36;;;;;;;1.20;1.10;;;23.10;58.90;;;;;;5053347;28;20174;-56
2022/08/03 06:03:02;;;;;;;1.30;1.08;;;23.10;59.00;;;;;;5053087;28;20179;-57
2022/08/03 06:05:28;;;;;;;1.83;1.02;;;23.10;58.90;;;;;;5052469;28;20179;-54
2022/08/03 06:07:53;;;;;;;3.22;1.30;;;23.10;58.90;;;;;;5052826;28;20171;-58
2022/08/03 06:10:19;;;;;;;2.75;1.50;;;23.20;59.10;;;;;;5052996;28;20194;-56
2022/08/03 06:12:48;;;;;;;2.33;1.40;;;23.10;59.10;;;;;;5052136;28;20655;-54
2022/08/03 06:15:14;;;;;;;1.88;1.20;;;23.10;59.10;;;;;;5052866;28;20175;-58
2022/08/03 06:17:49;;;;;;;1.10;1.00;;;23.10;59.00;;;;;;5053032;28;20628;-55
2022/08/03 06:20:18;;;;;;;2.33;1.40;;;23.20;59.10;;;;;;5052195;28;20170;-58
2022/08/03 06:22:44;;;;;;;3.10;1.50;;;23.10;59.10;;;;;;5052719;28;20652;-56
2022/08/03 06:25:10;;;;;;;3.05;1.20;;;23.10;59.10;;;;;;5053091;28;20186;-52
2022/08/03 06:27:38;;;;;;;4.82;1.77;;;23.10;59.20;;;;;;5052229;28;20171;-54
2022/08/03 06:30:07;;;;;;;1.88;1.10;;;23.10;59.20;;;;;;5052546;28;20630;-55
2022/08/03 06:32:33;;;;;;;1.58;1.27;;;23.10;59.30;;;;;;5052599;28;20388;-57
2022/08/03 06:34:59;;;;;;;2.08;1.48;;;23.10;59.30;;;;;;5051788;28;20210;-57
2022/08/03 06:37:25;;;;;;;2.55;1.25;;;23.10;59.20;;;;;;5052832;28;20683;-57
2022/08/03 06:39:51;;;;;;;2.92;1.23;;;23.20;59.40;;;;;;5052651;28;20183;-58
2022/08/03 06:42:17;;;;;;;1.90;1.25;;;23.20;59.30;;;;;;5051922;28;20194;-58
2022/08/03 06:44:42;;;;;;;1.65;1.30;;;23.20;59.30;;;;;;5052513;28;20182;-69
2022/08/03 06:47:08;;;;;;;1.40;1.30;;;23.20;59.20;;;;;;5052596;28;20274;-69
2022/08/03 06:49:34;;;;;;;2.13;1.30;;;23.30;59.30;;;;;;5051699;28;20560;-71
2022/08/03 06:51:59;;;;;;;3.42;1.38;;;23.30;59.50;;;;;;5052327;28;20171;-70
2022/08/03 06:54:25;;;;;;;4.05;1.25;;;23.30;59.40;;;;;;5051880;28;20270;-69
2022/08/03 06:56:50;;;;;;;2.03;1.38;;;23.30;59.60;;;;;;5052265;28;20182;-70
2022/08/03 06:59:16;;;;;;;3.38;1.40;;;23.30;59.60;;;;;;5052368;28;20222;-70
2022/08/03 07:01:41;;;;;;;2.85;1.10;;;23.30;59.60;;;;;;5051789;28;20213;-70
2022/08/03 07:04:07;;;;;;;2.13;1.27;;;23.30;59.50;;;;;;5050672;28;20179;-71
2022/08/03 07:06:33;;;;;;;3.58;1.45;;;23.30;59.50;;;;;;5054794;28;20214;-70
2022/08/03 07:08:58;;;;;;;3.45;1.45;;;23.40;59.40;;;;;;5055758;28;20216;-69
2022/08/03 07:11:24;;;;;;;2.97;1.40;;;23.40;59.40;;;;;;5056503;28;20197;-69
2022/08/03 07:13:49;;;;;;;2.30;1.40;;;23.40;59.40;;;;;;5056139;28;20680;-71
2022/08/03 07:16:15;;;;;;;3.30;1.55;;;23.40;60.00;;;;;;5055564;28;20172;-71
2022/08/03 07:18:41;;;;;;;4.50;1.40;;;23.40;59.40;;;;;;5056435;28;20276;-71
2022/08/03 07:21:08;;;;;;;2.08;1.50;;;23.40;59.40;;;;;;5055953;28;20506;-71
2022/08/03 07:23:33;;;;;;;4.28;1.75;;;23.40;59.40;;;;;;5055303;28;20676;-67
2022/08/03 07:25:59;;;;;;;5.05;1.92;;;23.40;59.40;;;;;;5055942;28;20179;-66
2022/08/03 07:28:24;;;;;;;3.35;1.60;;;23.50;59.40;;;;;;5056114;28;20266;-66
2022/08/03 07:30:50;;;;;;;4.72;1.55;;;23.50;59.50;;;;;;5055018;28;20167;-66
2022/08/03 07:33:15;;;;;;;2.97;1.70;;;23.50;59.50;;;;;;5055979;28;20175;-70
2022/08/03 07:35:41;;;;;;;4.32;1.60;;;23.50;59.40;;;;;;5056158;28;20229;-71
2022/08/03 07:38:06;;;;;;;2.53;1.50;;;23.50;59.60;;;;;;5055053;28;20207;-72
2022/08/03 07:40:32;;;;;;;2.75;1.67;;;23.50;59.40;;;;;;5055707;28;20645;-68
2022/08/03 07:42:58;;;;;;;4.70;1.70;;;23.50;59.50;;;;;;5055720;28;20186;-74
2022/08/03 07:45:25;;;;;;;5.43;1.80;;;23.60;59.60;;;;;;5055037;28;20179;-71
2022/08/03 07:47:50;;;;;;;5.32;2.00;;;23.60;59.60;;;;;;5055438;28;20233;-71
2022/08/03 07:50:16;;;;;;;5.32;1.80;;;23.60;59.50;;;;;;5056127;28;20179;-71
2022/08/03 07:52:48;;;;;;;4.63;1.77;;;23.60;59.60;;;;;;5054877;28;20266;-71
2022/08/03 07:55:14;;;;;;;3.58;1.40;;;23.60;59.60;;;;;;5055779;28;20167;-73
2022/08/03 07:57:39;;;;;;;3.83;1.40;;;23.60;59.60;;;;;;5055343;28;20349;-72
2022/08/03 08:00:07;;;;;;;7.38;2.20;;;23.60;60.30;;;;;;5054003;28;20175;-71
2022/08/03 08:02:33;;;;;;;4.75;1.63;;;23.60;59.60;;;;;;5055291;28;20171;-69
2022/08/03 08:04:59;;;;;;;3.92;1.60;;;23.60;59.60;;;;;;5054696;28;20179;-69
2022/08/03 08:07:25;;;;;;;3.10;1.30;;;23.60;59.60;;;;;;5055260;28;20628;-68
2022/08/03 08:09:50;;;;;;;4.90;1.77;;;23.70;59.50;;;;;;5055209;28;20633;-68
2022/08/03 08:12:16;;;;;;;5.03;1.70;;;23.70;59.50;;;;;;5054659;28;20179;-68
2022/08/03 08:14:44;;;;;;;4.65;2.20;;;23.70;59.60;;;;;;5055422;28;20645;-69
2022/08/03 08:17:10;;;;;;;6.15;2.00;;;23.70;59.60;;;;;;5054908;28;20211;-71
2022/08/03 08:19:35;;;;;;;4.28;1.90;;;23.70;59.70;;;;;;5054627;28;20226;-71
2022/08/03 08:22:00;;;;;;;5.10;1.83;;;23.80;59.70;;;;;;5055061;28;20187;-72
2022/08/03 08:24:29;;;;;;;4.15;1.60;;;23.80;59.70;;;;;;5054929;28;20277;-71
2022/08/03 08:26:54;;;;;;;6.47;2.03;;;23.80;59.70;;;;;;5054295;28;20221;-70
2022/08/03 08:29:22;;;;;;;4.18;1.88;;;23.70;59.70;;;;;;5054990;28;20254;-70
2022/08/03 08:31:48;;;;;;;5.55;2.00;;;23.80;59.70;;;;;;5054521;28;20626;-70
2022/08/03 08:34:14;;;;;;;5.32;1.80;;;23.80;59.70;;;;;;5054332;28;20237;-71
2022/08/03 08:36:40;;;;;;;4.30;1.83;;;23.80;59.70;;;;;;5055108;28;20653;-71
2022/08/03 08:39:05;;;;;;;3.65;1.65;;;23.80;59.60;;;;;;5054772;28;20650;-71
2022/08/03 08:41:34;;;;;;;3.42;1.80;;;23.90;59.60;;;;;;5053918;28;20685;-71
2022/08/03 08:44:00;;;;;;;4.38;1.95;;;23.90;59.60;;;;;;5054468;28;20625;-71
2022/08/03 08:46:25;;;;;;;6.95;2.10;;;23.90;59.60;;;;;;5054587;28;20179;-71
2022/08/03 08:48:52;;;;;;;5.65;1.90;;;23.90;59.60;;;;;;5053814;28;20556;-71
2022/08/03 08:51:18;;;;;;;3.50;1.83;;;23.90;59.60;;;;;;5054630;28;20179;-71
2022/08/03 08:53:46;;;;;;;5.80;1.90;;;24.00;59.60;;;;;;5054351;28;20649;-71
2022/08/03 08:56:16;;;;;;;2.92;1.80;;;24.00;59.60;;;;;;5053850;28;20550;-72
2022/08/03 08:58:46;;;;;;;4.88;1.65;;;24.00;59.50;;;;;;5037259;28;20225;-71
2022/08/03 09:01:11;;;;;;;3.83;2.00;;;24.00;59.50;;;;;;5036526;28;20256;-72
2022/08/03 09:03:37;;;;;;;8.32;2.33;;;24.00;59.50;;;;;;5036784;28;20264;-71
2022/08/03 09:06:02;;;;;;;4.18;2.03;;;24.00;59.40;;;;;;5020022;28;20693;-71
2022/08/03 09:08:29;;;;;;;5.65;1.80;;;24.10;59.50;;;;;;5053582;28;20586;-70
2022/08/03 09:10:54;;;;;;;5.43;1.70;;;24.10;59.40;;;;;;5054106;28;20178;-70
2022/08/03 09:13:20;;;;;;;4.57;1.90;;;24.10;59.30;;;;;;5054070;28;20535;-71
2022/08/03 09:15:45;;;;;;;9.05;2.38;;;24.10;59.30;;;;;;5035669;28;20174;-72
2022/08/03 09:18:12;;;;;;;6.00;1.95;;;24.10;59.30;;;;;;5054130;28;20237;-73
2022/08/03 09:20:38;;;;;;;3.78;1.88;;;24.20;59.30;;;;;;5054024;28;20171;-71
2022/08/03 09:23:07;;;;;;;5.82;1.95;;;24.10;59.20;;;;;;5053242;28;20263;-72
2022/08/03 09:25:37;;;;;;;3.85;2.00;;;24.20;59.20;;;;;;5053827;28;20175;-71
2022/08/03 09:28:10;;;;;;;6.35;2.08;;;24.20;59.80;;;;;;5053142;28;20701;-71
2022/08/03 09:30:41;;;;;;;4.32;2.00;;;24.20;59.10;;;;;;5053218;28;20595;-70
2022/08/03 09:33:10;;;;;;;2.38;1.50;;;24.20;59.10;;;;;;5053347;28;20227;-71
2022/08/03 09:35:41;;;;;;;3.72;1.63;;;24.20;59.10;;;;;;5053724;28;20171;-71
2022/08/03 09:38:12;;;;;;;5.57;2.00;;;24.30;59.10;;;;;;5052916;28;20249;-72
2022/08/03 09:40:38;;;;;;;4.13;1.83;;;24.30;59.00;;;;;;5053811;28;20164;-71
2022/08/03 09:43:06;;;;;;;4.18;2.00;;;24.30;59.00;;;;;;5053613;28;20175;-72
2022/08/03 09:45:32;;;;;;;4.47;1.70;;;24.30;58.90;;;;;;5052976;28;20183;-71
2022/08/03 09:47:59;;;;;;;6.88;2.17;;;24.30;58.90;;;;;;5053347;28;20187;-72
2022/08/03 09:50:24;;;;;;;4.43;2.08;;;24.40;58.90;;;;;;5018420;28;20240;-71
2022/08/03 09:52:50;;;;;;;4.60;1.60;;;24.40;58.80;;;;;;5035372;28;20618;-71
2022/08/03 09:55:19;;;;;;;6.53;2.20;;;24.40;58.80;;;;;;5035873;28;20172;-71
2022/08/03 09:57:45;;;;;;;4.35;1.95;;;24.40;58.80;;;;;;5052334;28;20211;-71
2022/08/03 10:00:12;;;;;;;4.20;2.00;;;24.50;58.80;;;;;;5053431;28;20205;-74
2022/08/03 10:02:41;;;;;;;4.85;2.45;;;24.50;58.80;;;;;;5053153;28;20186;-72
2022/08/03 10:05:08;;;;;;;5.85;2.17;;;24.50;58.80;;;;;;5052484;28;20175;-71
2022/08/03 10:07:47;;;;;;;4.60;1.70;;;24.50;58.80;;;;;;5053098;28;20202;-70
2022/08/03 10:10:12;;;;;;;5.53;2.05;;;24.50;58.80;;;;;;5053095;28;20266;-71
2022/08/03 10:12:39;;;;;;;7.72;2.33;;;24.50;58.70;;;;;;5052499;28;20262;-71
2022/08/03 10:15:05;;;;;;;4.15;1.52;;;24.50;58.70;;;;;;5035299;28;20189;-72
2022/08/03 10:17:31;;;;;;;5.18;1.88;;;24.50;58.70;;;;;;5052653;28;20206;-72
2022/08/03 10:19:57;;;;;;;6.32;2.05;;;24.50;58.70;;;;;;5052094;28;20179;-74
2022/08/03 10:22:28;;;;;;;4.03;2.10;;;24.50;58.70;;;;;;5052906;28;20283;-74
2022/08/03 10:24:59;;;;;;;4.10;1.80;;;24.60;58.70;;;;;;5035778;28;20298;-70
2022/08/03 10:27:26;;;;;;;6.80;1.73;;;24.60;58.60;;;;;;5052285;28;20171;-71
2022/08/03 10:29:53;;;;;;;5.45;2.13;;;24.60;58.60;;;;;;5052597;28;20190;-71
2022/08/03 10:32:27;;;;;;;5.63;2.00;;;24.60;58.60;;;;;;5052609;28;20223;-70
2022/08/03 10:34:57;;;;;;;4.85;2.15;;;24.60;58.60;;;;;;5035075;28;20186;-71
2022/08/03 10:37:24;;;;;;;5.38;1.90;;;24.60;58.60;;;;;;5019075;28;20198;-71
2022/08/03 10:39:53;;;;;;;5.18;1.92;;;24.60;58.50;;;;;;5018230;28;20618;-71
2022/08/03 10:42:25;;;;;;;7.97;2.13;;;24.70;58.50;;;;;;5019257;28;20180;-71
2022/08/03 10:44:55;;;;;;;6.40;1.73;;;24.70;58.50;;;;;;5034945;28;20179;-71
2022/08/03 10:47:20;;;;;;;4.95;1.88;;;24.70;58.40;;;;;;5051967;28;20175;-71
2022/08/03 10:49:47;;;;;;;7.82;2.08;;;24.70;58.40;;;;;;5018307;28;20263;-70
2022/08/03 10:52:13;;;;;;;4.53;2.03;;;24.70;58.40;;;;;;5052675;28;20175;-71
2022/08/03 10:57:49;;;;;;;3.72;1.85;;;24.80;58.40;;;;;;5052643;28;20178;-70
2022/08/03 11:00:21;;;;;;;4.50;2.00;;;24.70;58.30;;;;;;5052664;28;20179;-71
2022/08/03 11:03:12;;;;;;;4.10;1.80;;;24.80;58.40;;;;;;5051436;28;20236;-71
2022/08/03 11:05:40;;;;;;;5.07;1.80;;;24.80;58.40;;;;;;5052390;28;20206;-70
2022/08/03 11:08:30;;;;;;;5.28;1.90;;;24.80;58.40;;;;;;5051469;28;20186;-70
2022/08/03 11:11:14;;;;;;;6.60;1.95;;;24.80;58.40;;;;;;5052433;28;20200;-70
2022/08/03 11:13:39;;;;;;;5.90;2.00;;;24.80;58.30;;;;;;5052313;28;20174;-71
2022/08/03 11:16:18;;;;;;;5.05;2.33;;;24.80;58.30;;;;;;5017064;28;20229;-71
2022/08/03 11:18:57;;;;;;;6.32;2.00;;;24.80;58.30;;;;;;5052308;28;20214;-72
2022/08/03 11:21:49;;;;;;;8.00;2.00;;;24.80;58.20;;;;;;5052586;28;20175;-71
2022/08/03 11:24:40;;;;;;;6.93;1.85;;;24.80;58.20;;;;;;5052182;28;20171;-71
2022/08/03 11:27:23;;;;;;;5.82;2.03;;;24.90;58.20;;;;;;5052288;28;20174;-70
2022/08/03 11:30:08;;;;;;;3.40;1.73;;;24.90;58.20;;;;;;5051499;28;20195;-70
2022/08/03 11:32:37;;;;;;;4.03;2.00;;;24.90;58.20;;;;;;5052027;28;20234;-70
2022/08/03 11:35:15;;;;;;;5.45;1.92;;;24.90;58.20;;;;;;5052166;28;20286;-70
2022/08/03 11:37:52;;;;;;;5.22;2.15;;;24.90;58.10;;;;;;5051676;28;20206;-70
2022/08/03 11:40:48;;;;;;;4.68;2.08;;;24.90;58.10;;;;;;5052161;28;20190;-71
2022/08/03 11:43:29;;;;;;;5.32;2.28;;;24.90;58.10;;;;;;5049087;28;20183;-71
2022/08/03 11:46:07;;;;;;;5.55;1.85;;;25.00;58.10;;;;;;5052083;28;20182;-71
2022/08/03 11:48:33;;;;;;;5.07;1.80;;;25.00;58.10;;;;;;5052104;28;20175;-70
2022/08/03 11:51:03;;;;;;;4.72;2.03;;;25.00;58.10;;;;;;5051100;28;20233;-71
2022/08/03 11:53:28;;;;;;;5.40;1.90;;;25.00;58.00;;;;;;5055421;28;20211;-70
2022/08/03 11:55:57;;;;;;;3.85;1.85;;;25.00;58.00;;;;;;5021269;28;20181;-71
2022/08/03 11:58:22;;;;;;;6.22;2.28;;;25.00;58.00;;;;;;5037568;28;20268;-71
2022/08/03 12:00:49;;;;;;;5.93;2.60;;;25.00;58.00;;;;;;5055576;28;20183;-71
2022/08/03 12:03:15;;;;;;;5.28;2.22;;;25.00;58.00;;;;;;5055611;28;20190;-71
2022/08/03 12:05:49;;;;;;;4.35;1.98;;;25.00;58.00;;;;;;5054991;28;20179;-70
2022/08/03 12:08:36;;;;;;;4.00;1.85;;;25.00;57.90;;;;;;5055502;28;20234;-70
2022/08/03 12:11:04;;;;;;;7.88;2.35;;;25.00;57.90;;;;;;5053772;28;20183;-70
2022/08/03 12:13:44;;;;;;;6.60;2.10;;;25.00;57.70;;;;;;5055342;28;20190;-71
2022/08/03 12:16:09;;;;;;;5.47;2.22;;;25.10;57.80;;;;;;5055464;28;20177;-71
2022/08/03 12:18:35;;;;;;;5.85;2.08;;;25.10;57.60;;;;;;5054266;28;20293;-72
2022/08/03 12:21:06;;;;;;;5.35;2.00;;;25.20;57.70;;;;;;5037454;28;20258;-71
2022/08/03 12:23:31;;;;;;;5.68;2.20;;;25.20;57.60;;;;;;5055109;28;20721;-70
2022/08/03 12:26:01;;;;;;;5.80;2.20;;;25.20;57.40;;;;;;5054136;28;20186;-71
2022/08/03 12:28:26;;;;;;;4.47;1.80;;;25.20;57.40;;;;;;5055039;28;20185;-69
2022/08/03 12:30:52;;;;;;;5.43;1.67;;;25.20;57.30;;;;;;5054689;28;20171;-69
2022/08/03 12:33:24;;;;;;;6.57;2.08;;;25.30;57.30;;;;;;5054083;28;20302;-69
2022/08/03 12:36:07;;;;;;;5.60;1.80;;;25.30;57.10;;;;;;5054961;28;20183;-70
2022/08/03 12:38:37;;;;;;;5.53;2.05;;;25.40;57.10;;;;;;5054886;28;20648;-71
2022/08/03 12:41:07;;;;;;;5.00;2.00;;;25.40;57.00;;;;;;5053901;28;20317;-71
2022/08/03 12:43:33;;;;;;;6.32;2.35;;;25.40;56.90;;;;;;5054769;28;20176;-71
2022/08/03 12:46:14;;;;;;;2.42;1.63;;;25.40;56.80;;;;;;5054487;28;20187;-71
2022/08/03 12:49:06;;;;;;;6.63;1.90;;;25.40;56.80;;;;;;5054655;28;20641;-70
2022/08/03 12:51:52;;;;;;;4.90;1.60;;;25.40;56.80;;;;;;5054656;28;20232;-70
2022/08/03 12:54:21;;;;;;;5.03;2.20;;;25.50;56.70;;;;;;5036625;28;20179;-71
2022/08/03 12:57:00;;;;;;;8.57;2.03;;;25.50;56.70;;;;;;5054290;28;20622;-70
2022/08/03 12:59:27;;;;;;;4.65;1.98;;;25.50;56.60;;;;;;5054234;28;20571;-72
2022/08/03 13:01:53;;;;;;;7.10;2.58;;;25.50;56.60;;;;;;5053436;28;20171;-71